sensor_id;sensor_type;location;lat;lon;timestamp;P1;durP1;ratioP1;P2;durP2;ratioP2
21591;SDS011;10958;50.892;3.992;2022-12-07T00:01:38;9.70;;;7.22;;
21591;SDS011;10958;50.892;3.992;2022-12-07T00:04:07;13.30;;;6.95;;
21591;SDS011;10958;50.892;3.992;2022-12-07T00:06:43;10.63;;;7.45;;
21591;SDS011;10958;50.892;3.992;2022-12-07T00:09:11;12.77;;;7.35;;
21591;SDS011;10958;50.892;3.992;2022-12-07T00:11:38;10.43;;;6.90;;
21591;SDS011;10958;50.892;3.992;2022-12-07T00:14:06;14.52;;;7.38;;
21591;SDS011;10958;50.892;3.992;2022-12-07T00:16:37;12.15;;;7.28;;
21591;SDS011;10958;50.892;3.992;2022-12-07T00:19:03;11.85;;;7.45;;
21591;SDS011;10958;50.892;3.992;2022-12-07T00:21:30;15.18;;;8.32;;
21591;SDS011;10958;50.892;3.992;2022-12-07T00:23:58;11.80;;;7.57;;
21591;SDS011;10958;50.892;3.992;2022-12-07T00:26:28;12.00;;;7.88;;
21591;SDS011;10958;50.892;3.992;2022-12-07T00:28:59;13.32;;;8.18;;
21591;SDS011;10958;50.892;3.992;2022-12-07T00:31:35;15.45;;;7.75;;
21591;SDS011;10958;50.892;3.992;2022-12-07T00:34:04;13.93;;;7.70;;
21591;SDS011;10958;50.892;3.992;2022-12-07T00:36:36;12.38;;;7.97;;
21591;SDS011;10958;50.892;3.992;2022-12-07T00:39:02;13.63;;;7.85;;
21591;SDS011;10958;50.892;3.992;2022-12-07T00:41:29;14.10;;;8.25;;
21591;SDS011;10958;50.892;3.992;2022-12-07T00:43:55;12.68;;;7.57;;
21591;SDS011;10958;50.892;3.992;2022-12-07T00:46:22;16.25;;;8.00;;
21591;SDS011;10958;50.892;3.992;2022-12-07T00:48:49;11.70;;;7.63;;
21591;SDS011;10958;50.892;3.992;2022-12-07T00:51:16;10.23;;;7.50;;
21591;SDS011;10958;50.892;3.992;2022-12-07T00:53:43;12.07;;;8.10;;
21591;SDS011;10958;50.892;3.992;2022-12-07T00:56:14;12.68;;;6.95;;
21591;SDS011;10958;50.892;3.992;2022-12-07T00:58:42;13.30;;;7.43;;
21591;SDS011;10958;50.892;3.992;2022-12-07T01:01:08;10.48;;;6.95;;
21591;SDS011;10958;50.892;3.992;2022-12-07T01:03:37;11.93;;;7.10;;
21591;SDS011;10958;50.892;3.992;2022-12-07T01:06:03;13.98;;;7.75;;
21591;SDS011;10958;50.892;3.992;2022-12-07T01:08:29;10.63;;;7.05;;
21591;SDS011;10958;50.892;3.992;2022-12-07T01:11:05;12.95;;;7.57;;
21591;SDS011;10958;50.892;3.992;2022-12-07T01:13:33;13.38;;;7.68;;
21591;SDS011;10958;50.892;3.992;2022-12-07T01:16:00;12.35;;;7.05;;
21591;SDS011;10958;50.892;3.992;2022-12-07T01:18:28;12.48;;;7.35;;
21591;SDS011;10958;50.892;3.992;2022-12-07T01:21:02;12.70;;;6.60;;
21591;SDS011;10958;50.892;3.992;2022-12-07T01:23:34;9.07;;;6.30;;
21591;SDS011;10958;50.892;3.992;2022-12-07T01:26:01;13.18;;;7.10;;
21591;SDS011;10958;50.892;3.992;2022-12-07T01:28:33;10.15;;;6.35;;
21591;SDS011;10958;50.892;3.992;2022-12-07T01:31:00;11.48;;;6.43;;
21591;SDS011;10958;50.892;3.992;2022-12-07T01:33:32;9.20;;;6.45;;
21591;SDS011;10958;50.892;3.992;2022-12-07T01:36:02;9.38;;;6.07;;
21591;SDS011;10958;50.892;3.992;2022-12-07T01:38:33;9.07;;;6.30;;
21591;SDS011;10958;50.892;3.992;2022-12-07T01:41:00;11.20;;;5.57;;
21591;SDS011;10958;50.892;3.992;2022-12-07T01:43:30;9.65;;;5.55;;
21591;SDS011;10958;50.892;3.992;2022-12-07T01:45:58;11.23;;;5.47;;
21591;SDS011;10958;50.892;3.992;2022-12-07T01:48:26;10.55;;;5.40;;
21591;SDS011;10958;50.892;3.992;2022-12-07T01:50:55;10.43;;;5.20;;
21591;SDS011;10958;50.892;3.992;2022-12-07T01:53:26;8.75;;;5.55;;
21591;SDS011;10958;50.892;3.992;2022-12-07T01:55:54;11.00;;;5.38;;
21591;SDS011;10958;50.892;3.992;2022-12-07T01:58:21;8.75;;;5.35;;
21591;SDS011;10958;50.892;3.992;2022-12-07T02:00:48;11.60;;;5.50;;
21591;SDS011;10958;50.892;3.992;2022-12-07T02:05:46;10.13;;;6.03;;
21591;SDS011;10958;50.892;3.992;2022-12-07T02:08:15;9.18;;;5.60;;
21591;SDS011;10958;50.892;3.992;2022-12-07T02:10:41;10.18;;;5.97;;
21591;SDS011;10958;50.892;3.992;2022-12-07T02:13:09;15.00;;;6.22;;
21591;SDS011;10958;50.892;3.992;2022-12-07T02:19:09;11.75;;;7.45;;
21591;SDS011;10958;50.892;3.992;2022-12-07T02:24:53;12.68;;;6.75;;
21591;SDS011;10958;50.892;3.992;2022-12-07T02:27:37;11.60;;;7.07;;
21591;SDS011;10958;50.892;3.992;2022-12-07T02:30:04;13.15;;;6.90;;
21591;SDS011;10958;50.892;3.992;2022-12-07T02:35:15;12.85;;;7.03;;
21591;SDS011;10958;50.892;3.992;2022-12-07T02:40:35;13.05;;;7.15;;
21591;SDS011;10958;50.892;3.992;2022-12-07T02:43:20;13.60;;;7.47;;
21591;SDS011;10958;50.892;3.992;2022-12-07T02:45:54;14.20;;;7.30;;
21591;SDS011;10958;50.892;3.992;2022-12-07T02:48:27;10.55;;;6.40;;
21591;SDS011;10958;50.892;3.992;2022-12-07T02:50:56;12.40;;;7.30;;
21591;SDS011;10958;50.892;3.992;2022-12-07T02:53:31;11.83;;;6.50;;
21591;SDS011;10958;50.892;3.992;2022-12-07T02:56:01;15.85;;;6.97;;
21591;SDS011;10958;50.892;3.992;2022-12-07T03:01:50;10.95;;;6.78;;
21591;SDS011;10958;50.892;3.992;2022-12-07T03:10:58;15.57;;;7.28;;
21591;SDS011;10958;50.892;3.992;2022-12-07T03:13:35;12.35;;;6.97;;
21591;SDS011;10958;50.892;3.992;2022-12-07T03:16:20;14.55;;;7.15;;
21591;SDS011;10958;50.892;3.992;2022-12-07T03:18:52;11.27;;;7.03;;
21591;SDS011;10958;50.892;3.992;2022-12-07T03:21:39;13.60;;;7.80;;
21591;SDS011;10958;50.892;3.992;2022-12-07T03:24:12;14.90;;;7.95;;
21591;SDS011;10958;50.892;3.992;2022-12-07T03:26:57;13.77;;;7.35;;
21591;SDS011;10958;50.892;3.992;2022-12-07T03:29:31;13.05;;;7.90;;
21591;SDS011;10958;50.892;3.992;2022-12-07T03:32:48;15.63;;;7.25;;
21591;SDS011;10958;50.892;3.992;2022-12-07T03:34:58;13.00;;;7.10;;
21591;SDS011;10958;50.892;3.992;2022-12-07T03:37:29;12.32;;;7.25;;
21591;SDS011;10958;50.892;3.992;2022-12-07T03:44:57;12.02;;;7.10;;
21591;SDS011;10958;50.892;3.992;2022-12-07T03:52:58;12.00;;;6.70;;
21591;SDS011;10958;50.892;3.992;2022-12-07T03:55:30;11.52;;;6.70;;
21591;SDS011;10958;50.892;3.992;2022-12-07T03:58:07;11.80;;;6.60;;
21591;SDS011;10958;50.892;3.992;2022-12-07T04:00:36;13.85;;;7.03;;
21591;SDS011;10958;50.892;3.992;2022-12-07T04:03:02;12.07;;;6.95;;
21591;SDS011;10958;50.892;3.992;2022-12-07T04:05:29;14.98;;;7.07;;
21591;SDS011;10958;50.892;3.992;2022-12-07T04:07:55;14.88;;;6.45;;
21591;SDS011;10958;50.892;3.992;2022-12-07T04:10:21;12.68;;;7.13;;
21591;SDS011;10958;50.892;3.992;2022-12-07T04:12:47;9.93;;;5.88;;
21591;SDS011;10958;50.892;3.992;2022-12-07T04:15:12;10.40;;;5.97;;
21591;SDS011;10958;50.892;3.992;2022-12-07T04:17:38;10.63;;;6.68;;
21591;SDS011;10958;50.892;3.992;2022-12-07T04:20:13;13.00;;;6.45;;
21591;SDS011;10958;50.892;3.992;2022-12-07T04:22:44;13.27;;;6.47;;
21591;SDS011;10958;50.892;3.992;2022-12-07T04:25:11;12.55;;;6.35;;
21591;SDS011;10958;50.892;3.992;2022-12-07T04:27:37;8.18;;;5.95;;
21591;SDS011;10958;50.892;3.992;2022-12-07T04:30:03;12.25;;;6.22;;
21591;SDS011;10958;50.892;3.992;2022-12-07T04:32:30;11.63;;;6.00;;
21591;SDS011;10958;50.892;3.992;2022-12-07T04:34:56;10.40;;;5.53;;
21591;SDS011;10958;50.892;3.992;2022-12-07T04:37:22;12.00;;;5.95;;
21591;SDS011;10958;50.892;3.992;2022-12-07T04:39:51;11.27;;;5.90;;
21591;SDS011;10958;50.892;3.992;2022-12-07T04:42:17;10.85;;;6.03;;
21591;SDS011;10958;50.892;3.992;2022-12-07T04:44:43;10.30;;;6.10;;
21591;SDS011;10958;50.892;3.992;2022-12-07T04:47:09;11.15;;;5.70;;
21591;SDS011;10958;50.892;3.992;2022-12-07T04:49:38;10.60;;;5.53;;
21591;SDS011;10958;50.892;3.992;2022-12-07T04:52:04;9.45;;;4.60;;
21591;SDS011;10958;50.892;3.992;2022-12-07T04:54:29;10.30;;;5.72;;
21591;SDS011;10958;50.892;3.992;2022-12-07T04:56:56;12.07;;;5.72;;
21591;SDS011;10958;50.892;3.992;2022-12-07T04:59:21;9.50;;;6.00;;
21591;SDS011;10958;50.892;3.992;2022-12-07T05:01:47;10.85;;;5.88;;
21591;SDS011;10958;50.892;3.992;2022-12-07T05:04:13;8.18;;;4.90;;
21591;SDS011;10958;50.892;3.992;2022-12-07T05:06:39;10.52;;;5.70;;
21591;SDS011;10958;50.892;3.992;2022-12-07T05:09:04;10.63;;;5.70;;
21591;SDS011;10958;50.892;3.992;2022-12-07T05:11:33;13.90;;;5.75;;
21591;SDS011;10958;50.892;3.992;2022-12-07T05:14:06;16.13;;;5.93;;
21591;SDS011;10958;50.892;3.992;2022-12-07T05:16:50;11.02;;;6.05;;
21591;SDS011;10958;50.892;3.992;2022-12-07T05:19:17;13.77;;;6.35;;
21591;SDS011;10958;50.892;3.992;2022-12-07T05:21:43;10.43;;;6.05;;
21591;SDS011;10958;50.892;3.992;2022-12-07T05:24:10;12.13;;;5.93;;
21591;SDS011;10958;50.892;3.992;2022-12-07T05:26:38;13.77;;;6.30;;
21591;SDS011;10958;50.892;3.992;2022-12-07T05:29:04;13.68;;;6.38;;
21591;SDS011;10958;50.892;3.992;2022-12-07T05:31:30;10.68;;;6.20;;
21591;SDS011;10958;50.892;3.992;2022-12-07T05:33:56;12.25;;;6.18;;
21591;SDS011;10958;50.892;3.992;2022-12-07T05:36:22;13.65;;;6.30;;
21591;SDS011;10958;50.892;3.992;2022-12-07T05:38:48;11.85;;;6.00;;
21591;SDS011;10958;50.892;3.992;2022-12-07T05:41:17;9.05;;;6.53;;
21591;SDS011;10958;50.892;3.992;2022-12-07T05:44:02;10.77;;;6.07;;
21591;SDS011;10958;50.892;3.992;2022-12-07T05:46:29;15.35;;;6.07;;
21591;SDS011;10958;50.892;3.992;2022-12-07T05:48:54;10.30;;;5.97;;
21591;SDS011;10958;50.892;3.992;2022-12-07T05:54:40;12.23;;;6.45;;
21591;SDS011;10958;50.892;3.992;2022-12-07T05:57:06;15.65;;;6.75;;
21591;SDS011;10958;50.892;3.992;2022-12-07T05:59:32;14.10;;;5.55;;
21591;SDS011;10958;50.892;3.992;2022-12-07T06:01:59;9.00;;;5.10;;
21591;SDS011;10958;50.892;3.992;2022-12-07T06:04:29;11.35;;;5.25;;
21591;SDS011;10958;50.892;3.992;2022-12-07T06:06:57;12.40;;;5.60;;
21591;SDS011;10958;50.892;3.992;2022-12-07T06:09:24;11.10;;;5.47;;
21591;SDS011;10958;50.892;3.992;2022-12-07T06:11:51;11.13;;;5.10;;
21591;SDS011;10958;50.892;3.992;2022-12-07T06:14:36;12.85;;;5.28;;
21591;SDS011;10958;50.892;3.992;2022-12-07T06:17:02;10.02;;;4.90;;
21591;SDS011;10958;50.892;3.992;2022-12-07T06:19:28;13.00;;;4.65;;
21591;SDS011;10958;50.892;3.992;2022-12-07T06:21:54;8.52;;;5.03;;
21591;SDS011;10958;50.892;3.992;2022-12-07T06:24:20;8.00;;;4.50;;
21591;SDS011;10958;50.892;3.992;2022-12-07T06:26:46;11.07;;;4.97;;
21591;SDS011;10958;50.892;3.992;2022-12-07T06:29:13;12.25;;;4.85;;
21591;SDS011;10958;50.892;3.992;2022-12-07T06:31:39;10.18;;;4.70;;
21591;SDS011;10958;50.892;3.992;2022-12-07T06:34:09;10.98;;;4.53;;
21591;SDS011;10958;50.892;3.992;2022-12-07T06:36:37;9.20;;;5.07;;
21591;SDS011;10958;50.892;3.992;2022-12-07T06:39:05;8.68;;;5.13;;
21591;SDS011;10958;50.892;3.992;2022-12-07T06:41:33;9.10;;;4.63;;
21591;SDS011;10958;50.892;3.992;2022-12-07T06:46:29;8.18;;;4.35;;
21591;SDS011;10958;50.892;3.992;2022-12-07T06:48:56;8.68;;;4.50;;
21591;SDS011;10958;50.892;3.992;2022-12-07T06:51:22;7.68;;;5.65;;
21591;SDS011;10958;50.892;3.992;2022-12-07T06:53:48;8.55;;;5.28;;
21591;SDS011;10958;50.892;3.992;2022-12-07T06:56:13;11.27;;;5.65;;
21591;SDS011;10958;50.892;3.992;2022-12-07T06:58:42;15.35;;;6.15;;
21591;SDS011;10958;50.892;3.992;2022-12-07T07:01:09;10.55;;;6.15;;
21591;SDS011;10958;50.892;3.992;2022-12-07T07:03:39;12.05;;;6.10;;
21591;SDS011;10958;50.892;3.992;2022-12-07T07:06:06;11.68;;;6.75;;
21591;SDS011;10958;50.892;3.992;2022-12-07T07:08:32;11.10;;;6.22;;
21591;SDS011;10958;50.892;3.992;2022-12-07T07:10:59;9.93;;;5.97;;
21591;SDS011;10958;50.892;3.992;2022-12-07T07:13:27;11.18;;;6.18;;
21591;SDS011;10958;50.892;3.992;2022-12-07T07:15:54;9.30;;;5.40;;
21591;SDS011;10958;50.892;3.992;2022-12-07T07:18:19;14.35;;;7.30;;
21591;SDS011;10958;50.892;3.992;2022-12-07T07:20:48;10.20;;;5.93;;
21591;SDS011;10958;50.892;3.992;2022-12-07T07:23:32;6.95;;;5.47;;
21591;SDS011;10958;50.892;3.992;2022-12-07T07:26:09;8.25;;;5.55;;
21591;SDS011;10958;50.892;3.992;2022-12-07T07:28:45;9.43;;;5.50;;
21591;SDS011;10958;50.892;3.992;2022-12-07T07:31:11;11.98;;;6.05;;
21591;SDS011;10958;50.892;3.992;2022-12-07T07:33:37;8.95;;;5.35;;
21591;SDS011;10958;50.892;3.992;2022-12-07T07:36:03;10.75;;;6.05;;
21591;SDS011;10958;50.892;3.992;2022-12-07T07:38:29;10.25;;;6.40;;
21591;SDS011;10958;50.892;3.992;2022-12-07T07:40:55;12.23;;;5.93;;
21591;SDS011;10958;50.892;3.992;2022-12-07T07:43:20;9.60;;;5.55;;
21591;SDS011;10958;50.892;3.992;2022-12-07T07:45:47;10.35;;;5.53;;
21591;SDS011;10958;50.892;3.992;2022-12-07T07:48:12;10.40;;;5.97;;
21591;SDS011;10958;50.892;3.992;2022-12-07T07:50:38;10.70;;;5.47;;
21591;SDS011;10958;50.892;3.992;2022-12-07T07:53:04;14.35;;;7.60;;
21591;SDS011;10958;50.892;3.992;2022-12-07T07:55:30;13.98;;;6.95;;
21591;SDS011;10958;50.892;3.992;2022-12-07T07:57:55;13.48;;;5.97;;
21591;SDS011;10958;50.892;3.992;2022-12-07T08:00:22;11.48;;;6.18;;
21591;SDS011;10958;50.892;3.992;2022-12-07T08:02:47;16.15;;;7.57;;
21591;SDS011;10958;50.892;3.992;2022-12-07T08:05:16;12.63;;;6.07;;
21591;SDS011;10958;50.892;3.992;2022-12-07T08:07:44;13.00;;;7.10;;
21591;SDS011;10958;50.892;3.992;2022-12-07T08:10:11;11.47;;;5.63;;
21591;SDS011;10958;50.892;3.992;2022-12-07T08:12:39;11.95;;;7.38;;
21591;SDS011;10958;50.892;3.992;2022-12-07T08:15:29;8.95;;;5.40;;
21591;SDS011;10958;50.892;3.992;2022-12-07T08:17:58;11.23;;;6.00;;
21591;SDS011;10958;50.892;3.992;2022-12-07T08:23:28;12.93;;;6.10;;
21591;SDS011;10958;50.892;3.992;2022-12-07T08:26:16;9.80;;;5.80;;
21591;SDS011;10958;50.892;3.992;2022-12-07T08:28:48;11.48;;;6.28;;
21591;SDS011;10958;50.892;3.992;2022-12-07T08:31:16;11.95;;;5.75;;
21591;SDS011;10958;50.892;3.992;2022-12-07T08:33:46;7.90;;;4.53;;
21591;SDS011;10958;50.892;3.992;2022-12-07T08:36:22;11.23;;;6.35;;
21591;SDS011;10958;50.892;3.992;2022-12-07T08:38:51;17.23;;;6.03;;
21591;SDS011;10958;50.892;3.992;2022-12-07T08:44:21;10.68;;;5.75;;
21591;SDS011;10958;50.892;3.992;2022-12-07T08:46:53;12.07;;;6.45;;
21591;SDS011;10958;50.892;3.992;2022-12-07T08:49:39;12.93;;;5.70;;
21591;SDS011;10958;50.892;3.992;2022-12-07T08:52:11;11.80;;;5.38;;
21591;SDS011;10958;50.892;3.992;2022-12-07T08:54:42;10.15;;;5.32;;
21591;SDS011;10958;50.892;3.992;2022-12-07T08:57:09;14.23;;;5.70;;
21591;SDS011;10958;50.892;3.992;2022-12-07T08:59:38;10.30;;;4.57;;
21591;SDS011;10958;50.892;3.992;2022-12-07T09:05:03;10.15;;;4.53;;
21591;SDS011;10958;50.892;3.992;2022-12-07T09:13:53;8.77;;;5.53;;
21591;SDS011;10958;50.892;3.992;2022-12-07T09:16:31;15.13;;;6.80;;
21591;SDS011;10958;50.892;3.992;2022-12-07T09:19:09;15.15;;;6.55;;
21591;SDS011;10958;50.892;3.992;2022-12-07T09:21:46;8.45;;;4.85;;
21591;SDS011;10958;50.892;3.992;2022-12-07T09:24:25;9.15;;;4.20;;
21591;SDS011;10958;50.892;3.992;2022-12-07T09:26:58;15.70;;;4.97;;
21591;SDS011;10958;50.892;3.992;2022-12-07T09:29:40;11.15;;;4.05;;
21591;SDS011;10958;50.892;3.992;2022-12-07T09:32:22;12.10;;;4.22;;
21591;SDS011;10958;50.892;3.992;2022-12-07T09:35:21;11.18;;;4.32;;
21591;SDS011;10958;50.892;3.992;2022-12-07T09:37:48;10.85;;;4.90;;
21591;SDS011;10958;50.892;3.992;2022-12-07T09:40:20;8.30;;;4.05;;
21591;SDS011;10958;50.892;3.992;2022-12-07T09:42:51;13.48;;;5.03;;
21591;SDS011;10958;50.892;3.992;2022-12-07T09:45:24;9.07;;;4.30;;
21591;SDS011;10958;50.892;3.992;2022-12-07T09:48:10;6.28;;;3.92;;
21591;SDS011;10958;50.892;3.992;2022-12-07T09:50:59;12.23;;;4.05;;
21591;SDS011;10958;50.892;3.992;2022-12-07T09:57:12;11.82;;;4.47;;
21591;SDS011;10958;50.892;3.992;2022-12-07T09:59:42;9.45;;;3.72;;
21591;SDS011;10958;50.892;3.992;2022-12-07T10:02:23;6.95;;;3.65;;
21591;SDS011;10958;50.892;3.992;2022-12-07T10:08:47;11.15;;;4.45;;
21591;SDS011;10958;50.892;3.992;2022-12-07T10:13:52;9.23;;;4.25;;
21591;SDS011;10958;50.892;3.992;2022-12-07T10:25:07;7.15;;;3.70;;
21591;SDS011;10958;50.892;3.992;2022-12-07T10:27:38;11.50;;;3.53;;
21591;SDS011;10958;50.892;3.992;2022-12-07T10:30:12;8.82;;;3.15;;
21591;SDS011;10958;50.892;3.992;2022-12-07T10:32:45;8.15;;;2.58;;
21591;SDS011;10958;50.892;3.992;2022-12-07T10:41:28;5.60;;;3.63;;
21591;SDS011;10958;50.892;3.992;2022-12-07T10:43:57;9.45;;;3.83;;
21591;SDS011;10958;50.892;3.992;2022-12-07T10:52:58;5.93;;;3.00;;
21591;SDS011;10958;50.892;3.992;2022-12-07T11:07:01;7.60;;;2.33;;
21591;SDS011;10958;50.892;3.992;2022-12-07T11:19:04;4.03;;;2.50;;
21591;SDS011;10958;50.892;3.992;2022-12-07T11:22:04;8.60;;;2.65;;
21591;SDS011;10958;50.892;3.992;2022-12-07T11:43:37;7.35;;;1.80;;
21591;SDS011;10958;50.892;3.992;2022-12-07T11:46:22;7.13;;;2.40;;
21591;SDS011;10958;50.892;3.992;2022-12-07T11:49:07;8.60;;;2.50;;
21591;SDS011;10958;50.892;3.992;2022-12-07T11:51:44;6.35;;;2.53;;
21591;SDS011;10958;50.892;3.992;2022-12-07T11:54:35;10.10;;;3.50;;
21591;SDS011;10958;50.892;3.992;2022-12-07T11:57:09;8.57;;;3.40;;
21591;SDS011;10958;50.892;3.992;2022-12-07T12:00:00;7.45;;;3.15;;
21591;SDS011;10958;50.892;3.992;2022-12-07T12:02:41;12.65;;;3.17;;
21591;SDS011;10958;50.892;3.992;2022-12-07T12:05:18;7.50;;;3.03;;
21591;SDS011;10958;50.892;3.992;2022-12-07T12:07:54;5.07;;;3.00;;
21591;SDS011;10958;50.892;3.992;2022-12-07T12:11:03;11.55;;;3.38;;
21591;SDS011;10958;50.892;3.992;2022-12-07T12:16:57;12.30;;;3.15;;
21591;SDS011;10958;50.892;3.992;2022-12-07T12:22:42;14.40;;;5.05;;
21591;SDS011;10958;50.892;3.992;2022-12-07T12:25:28;10.82;;;4.50;;
21591;SDS011;10958;50.892;3.992;2022-12-07T12:28:21;8.27;;;2.90;;
21591;SDS011;10958;50.892;3.992;2022-12-07T12:31:16;11.65;;;3.38;;
21591;SDS011;10958;50.892;3.992;2022-12-07T12:53:21;9.45;;;2.17;;
21591;SDS011;10958;50.892;3.992;2022-12-07T13:07:58;8.52;;;2.28;;
21591;SDS011;10958;50.892;3.992;2022-12-07T13:10:39;4.88;;;2.20;;
21591;SDS011;10958;50.892;3.992;2022-12-07T13:15:51;10.30;;;3.53;;
21591;SDS011;10958;50.892;3.992;2022-12-07T13:18:39;9.45;;;3.25;;
21591;SDS011;10958;50.892;3.992;2022-12-07T13:26:13;7.15;;;2.60;;
21591;SDS011;10958;50.892;3.992;2022-12-07T13:28:47;7.13;;;2.47;;
21591;SDS011;10958;50.892;3.992;2022-12-07T13:33:55;5.78;;;2.10;;
21591;SDS011;10958;50.892;3.992;2022-12-07T13:36:25;6.47;;;2.20;;
21591;SDS011;10958;50.892;3.992;2022-12-07T13:38:56;4.40;;;2.63;;
21591;SDS011;10958;50.892;3.992;2022-12-07T13:41:25;7.90;;;2.20;;
21591;SDS011;10958;50.892;3.992;2022-12-07T13:52:50;8.10;;;2.72;;
21591;SDS011;10958;50.892;3.992;2022-12-07T13:55:19;7.05;;;2.78;;
21591;SDS011;10958;50.892;3.992;2022-12-07T13:57:47;4.93;;;2.28;;
21591;SDS011;10958;50.892;3.992;2022-12-07T14:00:19;4.28;;;2.33;;
21591;SDS011;10958;50.892;3.992;2022-12-07T14:05:30;7.20;;;1.73;;
21591;SDS011;10958;50.892;3.992;2022-12-07T14:08:04;7.88;;;2.22;;
21591;SDS011;10958;50.892;3.992;2022-12-07T14:13:58;10.30;;;2.45;;
21591;SDS011;10958;50.892;3.992;2022-12-07T14:16:23;6.60;;;2.97;;
21591;SDS011;10958;50.892;3.992;2022-12-07T14:18:50;5.85;;;2.20;;
21591;SDS011;10958;50.892;3.992;2022-12-07T14:21:18;5.55;;;2.10;;
21591;SDS011;10958;50.892;3.992;2022-12-07T14:26:38;4.28;;;2.38;;
21591;SDS011;10958;50.892;3.992;2022-12-07T14:31:50;6.40;;;2.53;;
21591;SDS011;10958;50.892;3.992;2022-12-07T14:34:19;9.85;;;2.58;;
21591;SDS011;10958;50.892;3.992;2022-12-07T14:36:48;6.60;;;3.35;;
21591;SDS011;10958;50.892;3.992;2022-12-07T14:39:14;7.72;;;3.08;;
21591;SDS011;10958;50.892;3.992;2022-12-07T14:41:40;6.97;;;2.60;;
21591;SDS011;10958;50.892;3.992;2022-12-07T14:44:19;3.03;;;1.85;;
21591;SDS011;10958;50.892;3.992;2022-12-07T14:46:46;5.30;;;2.47;;
21591;SDS011;10958;50.892;3.992;2022-12-07T14:49:13;3.38;;;1.80;;
21591;SDS011;10958;50.892;3.992;2022-12-07T14:51:41;5.93;;;2.63;;
21591;SDS011;10958;50.892;3.992;2022-12-07T14:54:13;2.47;;;1.70;;
21591;SDS011;10958;50.892;3.992;2022-12-07T14:56:42;3.60;;;2.05;;
21591;SDS011;10958;50.892;3.992;2022-12-07T14:59:10;5.30;;;2.28;;
21591;SDS011;10958;50.892;3.992;2022-12-07T15:01:36;4.07;;;1.95;;
21591;SDS011;10958;50.892;3.992;2022-12-07T15:04:05;4.13;;;1.73;;
21591;SDS011;10958;50.892;3.992;2022-12-07T15:06:31;3.17;;;1.60;;
21591;SDS011;10958;50.892;3.992;2022-12-07T15:08:57;3.83;;;1.85;;
21591;SDS011;10958;50.892;3.992;2022-12-07T15:11:23;7.32;;;3.20;;
21591;SDS011;10958;50.892;3.992;2022-12-07T15:13:49;11.98;;;5.32;;
21591;SDS011;10958;50.892;3.992;2022-12-07T15:16:33;5.15;;;3.25;;
21591;SDS011;10958;50.892;3.992;2022-12-07T15:19:00;4.68;;;2.50;;
21591;SDS011;10958;50.892;3.992;2022-12-07T15:21:26;4.72;;;2.30;;
21591;SDS011;10958;50.892;3.992;2022-12-07T15:23:54;6.93;;;2.85;;
21591;SDS011;10958;50.892;3.992;2022-12-07T15:26:21;8.60;;;2.90;;
21591;SDS011;10958;50.892;3.992;2022-12-07T15:28:49;11.45;;;3.00;;
21591;SDS011;10958;50.892;3.992;2022-12-07T15:33:47;16.75;;;6.25;;
21591;SDS011;10958;50.892;3.992;2022-12-07T15:36:40;14.38;;;5.72;;
21591;SDS011;10958;50.892;3.992;2022-12-07T15:39:06;10.30;;;5.18;;
21591;SDS011;10958;50.892;3.992;2022-12-07T15:41:34;6.97;;;3.40;;
21591;SDS011;10958;50.892;3.992;2022-12-07T15:44:00;12.35;;;3.95;;
21591;SDS011;10958;50.892;3.992;2022-12-07T15:46:44;4.53;;;2.53;;
21591;SDS011;10958;50.892;3.992;2022-12-07T15:49:15;5.47;;;2.95;;
21591;SDS011;10958;50.892;3.992;2022-12-07T15:51:42;6.75;;;2.95;;
21591;SDS011;10958;50.892;3.992;2022-12-07T15:54:11;7.28;;;3.10;;
21591;SDS011;10958;50.892;3.992;2022-12-07T15:56:40;7.22;;;3.67;;
21591;SDS011;10958;50.892;3.992;2022-12-07T15:59:06;5.60;;;3.05;;
21591;SDS011;10958;50.892;3.992;2022-12-07T16:01:32;5.95;;;2.88;;
21591;SDS011;10958;50.892;3.992;2022-12-07T16:04:01;5.73;;;2.93;;
21591;SDS011;10958;50.892;3.992;2022-12-07T16:06:37;4.50;;;2.83;;
21591;SDS011;10958;50.892;3.992;2022-12-07T16:09:05;9.65;;;3.47;;
21591;SDS011;10958;50.892;3.992;2022-12-07T16:11:31;10.45;;;4.90;;
21591;SDS011;10958;50.892;3.992;2022-12-07T16:13:57;9.93;;;4.90;;
21591;SDS011;10958;50.892;3.992;2022-12-07T16:16:26;12.95;;;5.18;;
21591;SDS011;10958;50.892;3.992;2022-12-07T16:21:57;5.30;;;4.20;;
21591;SDS011;10958;50.892;3.992;2022-12-07T16:24:25;13.68;;;5.70;;
21591;SDS011;10958;50.892;3.992;2022-12-07T16:26:57;7.22;;;4.63;;
21591;SDS011;10958;50.892;3.992;2022-12-07T16:29:23;9.63;;;4.28;;
21591;SDS011;10958;50.892;3.992;2022-12-07T16:37:00;9.55;;;5.32;;
21591;SDS011;10958;50.892;3.992;2022-12-07T16:39:26;12.38;;;6.72;;
21591;SDS011;10958;50.892;3.992;2022-12-07T16:41:54;9.50;;;6.20;;
21591;SDS011;10958;50.892;3.992;2022-12-07T16:44:19;11.00;;;6.55;;
21591;SDS011;10958;50.892;3.992;2022-12-07T16:46:46;15.85;;;7.03;;
21591;SDS011;10958;50.892;3.992;2022-12-07T16:49:12;12.23;;;7.07;;
21591;SDS011;10958;50.892;3.992;2022-12-07T16:51:41;11.98;;;6.80;;
21591;SDS011;10958;50.892;3.992;2022-12-07T16:54:13;13.65;;;6.35;;
21591;SDS011;10958;50.892;3.992;2022-12-07T16:56:39;14.00;;;6.78;;
21591;SDS011;10958;50.892;3.992;2022-12-07T16:59:05;14.32;;;7.43;;
21591;SDS011;10958;50.892;3.992;2022-12-07T17:01:30;11.60;;;6.72;;
21591;SDS011;10958;50.892;3.992;2022-12-07T17:03:57;14.75;;;7.65;;
21591;SDS011;10958;50.892;3.992;2022-12-07T17:06:24;13.48;;;5.85;;
21591;SDS011;10958;50.892;3.992;2022-12-07T17:08:54;9.70;;;5.65;;
21591;SDS011;10958;50.892;3.992;2022-12-07T17:11:22;11.30;;;5.60;;
21591;SDS011;10958;50.892;3.992;2022-12-07T17:13:51;15.18;;;5.10;;
21591;SDS011;10958;50.892;3.992;2022-12-07T17:16:36;13.32;;;7.15;;
21591;SDS011;10958;50.892;3.992;2022-12-07T17:19:03;24.58;;;10.15;;
21591;SDS011;10958;50.892;3.992;2022-12-07T17:21:30;25.70;;;13.07;;
21591;SDS011;10958;50.892;3.992;2022-12-07T17:23:58;14.93;;;7.45;;
21591;SDS011;10958;50.892;3.992;2022-12-07T17:26:25;13.13;;;7.30;;
21591;SDS011;10958;50.892;3.992;2022-12-07T17:28:52;9.63;;;5.30;;
21591;SDS011;10958;50.892;3.992;2022-12-07T17:31:20;11.15;;;5.22;;
21591;SDS011;10958;50.892;3.992;2022-12-07T17:34:09;10.80;;;5.35;;
21591;SDS011;10958;50.892;3.992;2022-12-07T17:36:39;13.60;;;8.20;;
21591;SDS011;10958;50.892;3.992;2022-12-07T17:42:25;13.55;;;7.07;;
21591;SDS011;10958;50.892;3.992;2022-12-07T17:45:19;9.05;;;4.95;;
21591;SDS011;10958;50.892;3.992;2022-12-07T17:50:14;9.20;;;5.22;;
21591;SDS011;10958;50.892;3.992;2022-12-07T17:52:40;17.27;;;6.05;;
21591;SDS011;10958;50.892;3.992;2022-12-07T17:55:24;12.77;;;6.60;;
21591;SDS011;10958;50.892;3.992;2022-12-07T17:57:49;15.52;;;5.93;;
21591;SDS011;10958;50.892;3.992;2022-12-07T18:00:16;13.15;;;5.70;;
21591;SDS011;10958;50.892;3.992;2022-12-07T18:02:42;13.82;;;6.20;;
21591;SDS011;10958;50.892;3.992;2022-12-07T18:05:08;13.80;;;6.35;;
21591;SDS011;10958;50.892;3.992;2022-12-07T18:07:35;10.95;;;7.13;;
21591;SDS011;10958;50.892;3.992;2022-12-07T18:10:02;10.23;;;6.05;;
21591;SDS011;10958;50.892;3.992;2022-12-07T18:12:31;14.77;;;6.40;;
21591;SDS011;10958;50.892;3.992;2022-12-07T18:14:57;17.48;;;6.63;;
21591;SDS011;10958;50.892;3.992;2022-12-07T18:17:22;13.93;;;6.38;;
21591;SDS011;10958;50.892;3.992;2022-12-07T18:19:50;14.15;;;6.47;;
21591;SDS011;10958;50.892;3.992;2022-12-07T18:22:16;12.63;;;6.88;;
21591;SDS011;10958;50.892;3.992;2022-12-07T18:24:44;16.23;;;7.82;;
21591;SDS011;10958;50.892;3.992;2022-12-07T18:27:21;13.85;;;7.75;;
21591;SDS011;10958;50.892;3.992;2022-12-07T18:29:47;16.13;;;7.90;;
21591;SDS011;10958;50.892;3.992;2022-12-07T18:32:18;16.65;;;8.63;;